Batavia, NY (14020)

11:39 AM EDT on July 28, 2017 (GMT -0400)
Park Rd | | Change Station

Elev 932 ft 43.01 °N, 78.20 °W | Updated 38 seconds ago

Overcast
Overcast
66.6 °F
Feels Like 66.6 °F
N
3.0
Wind Variable Wind from ENE
Gusts 10.0 mph

Today
High -- | Low -- °F
--% Chance of Precip.
Yesterday
High -- | Low -- °F
Precip. -- in
Pressure 29.98 in
Visibility 10.0 miles
Clouds Mostly Cloudy 2200 ft
Mostly Cloudy 3000 ft
Dew Point 60 °F
Humidity 80%
Rainfall 0.00 in
Snow Depth Not available.
5:59 AM 8:38 PM
Waxing Crescent, 31% visible
METAR KROC 281454Z 06013KT 10SM BKN022 BKN030 21/16 A2997 RMK AO2 SLP150 T02060156 53005
Pressure 29.98 in
Visibility 10.0 miles
Clouds Mostly Cloudy 2200 ft
Mostly Cloudy 3000 ft
Dew Point 60 °F
Humidity 80%
Rainfall 0.00 in
Snow Depth Not available.
5:59 AM 8:38 PM
Waxing Crescent, 31% visible
METAR KROC 281454Z 06013KT 10SM BKN022 BKN030 21/16 A2997 RMK AO2 SLP150 T02060156 53005

Get Severe Weather Alerts

Thanks for signing up!

Be on the lookout for a verification email in your inbox.

You'll start receiving the daily forecast at 6 AM.

×

10-Day Weather Forecast

Almanac

Astronomy

Jul. 28, 2017 Rise Set
Actual Time
Civil Twilight
Nautical Twilight
Astronomical Twilight
Moon
Length of Visible Light
Length of Day
Tomorrow will be .
, % of the Moon is Illuminated

Today's Extremes

State Highs State Lows

Community

WunderPhotos

Category 6

Welcome to Category 6. This is the collective home for Weather Underground's featured writeups by Dr. Jeff Masters (right), Bob Henson (left), Chris Burt, and other regular contributors.

Nearby

Air Quality

  Air Quality AQ Index Pollutant
Not available.

Snow Depth

Station Depth Elevation

Earthquake Activity

City Distance Mag. Time & Date
Minimum magnitude displayed is 2.5.

Coastal Water Temperatures

Place Temperature

Stations

Nearby Weather Stations

Station Location Temp. Windchill Dew Point Humidity Wind Precip. Elev Updated Type
                   

Watches & Warnings

There are currently no watches in effect.